Погода Мае-Сотна 2 недели

Вьентьян, Таиланд

04 - 17 марта
  • 04марта
    Сегодня
    +20°
    +36°
    Небольшая облачность
    ВремяПогодаТемператураВлажностьДавлениеВетер, м/сВероятность осадков
    01:00Практически безоблачно+25°C69 %740 мм0.6 м/с2 %
    04:00Ясно и безоблачно+24°C73 %740 мм0.5 м/с2 %
    07:00Ясно и безоблачно+22°C76 %741 мм0.4 м/с2 %
    10:00Ясно и безоблачно+29°C48 %742 мм0.7 м/с2 %
    13:00Небольшая облачность+35°C29 %741 мм3.2 м/с2 %
    16:00Практически безоблачно+36°C30 %739 мм3.8 м/с2 %
    19:00Облачно с прояснениями+31°C35 %739 мм2.1 м/с2 %
    22:00Небольшая облачность+26°C51 %740 мм0.8 м/с2 %
  • 05марта
    Вторник
    +21°
    +37°
    Небольшая облачность
    ВремяПогодаТемператураВлажностьДавлениеВетер, м/сВероятность осадков
    01:00Небольшая облачность+24°C55 %740 мм0.4 м/с2 %
    04:00Ясно и безоблачно+21°C60 %740 мм0.3 м/с2 %
    07:00Практически безоблачно+20°C63 %741 мм0.3 м/с2 %
    10:00Ясно и безоблачно+28°C39 %742 мм0.0 м/с2 %
    13:00Небольшая облачность+35°C28 %740 мм2.0 м/с2 %
    16:00Практически безоблачно+36°C27 %738 мм3.3 м/с2 %
    19:00Ясно и безоблачно+32°C42 %738 мм1.6 м/с2 %
    22:00Ясно и безоблачно+27°C67 %740 мм0.8 м/с2 %
  • 06марта
    Среда
    +22°
    +38°
    Практически безоблачно
    ВремяПогодаТемператураВлажностьДавлениеВетер, м/сВероятность осадков
    01:00Облачно с прояснениями+26°C76 %739 мм0.4 м/с2 %
    04:00Облачно с прояснениями+23°C78 %739 мм0.3 м/с2 %
    07:00Облачно с прояснениями+21°C76 %740 мм0.3 м/с2 %
    10:00Облачно с прояснениями+29°C46 %741 мм0.0 м/с2 %
    13:00Практически безоблачно+36°C29 %739 мм2.0 м/с2 %
    16:00Ясно и безоблачно+37°C30 %737 мм3.5 м/с2 %
    19:00Ясно и безоблачно+32°C54 %737 мм2.0 м/с2 %
    22:00Ясно и безоблачно+28°C78 %739 мм0.8 м/с2 %
  • 07марта
    Четверг
    +21°
    +38°
    Ясно и безоблачно
    ВремяПогодаТемператураВлажностьДавлениеВетер, м/сВероятность осадков
    01:00Ясно и безоблачно+26°C84 %738 мм0.5 м/с2 %
    04:00Ясно и безоблачно+24°C85 %738 мм0.3 м/с2 %
    07:00Ясно и безоблачно+22°C85 %739 мм0.3 м/с2 %
    10:00Ясно и безоблачно+29°C53 %741 мм0.2 м/с2 %
    13:00Ясно и безоблачно+36°C30 %739 мм2.1 м/с2 %
    16:00Ясно и безоблачно+37°C28 %737 мм3.5 м/с2 %
    19:00Ясно и безоблачно+33°C45 %737 мм1.6 м/с2 %
    22:00Ясно и безоблачно+28°C63 %739 мм0.8 м/с2 %
  • 08марта
    Пятница
    +22°
    +39°
    Ясно и безоблачно
    ВремяПогодаТемператураВлажностьДавлениеВетер, м/сВероятность осадков
    01:00Ясно и безоблачно+27°C75 %738 мм0.3 м/с2 %
    04:00Ясно и безоблачно+24°C81 %738 мм0.4 м/с2 %
    07:00Ясно и безоблачно+22°C83 %740 мм0.3 м/с2 %
    10:00Ясно и безоблачно+29°C48 %741 мм0.1 м/с2 %
    13:00Ясно и безоблачно+36°C24 %739 мм1.8 м/с2 %
    16:00Ясно и безоблачно+38°C26 %737 мм3.7 м/с4 %
    19:00Практически безоблачно+33°C38 %738 мм1.6 м/с2 %
    22:00Ясно и безоблачно+29°C65 %740 мм0.7 м/с2 %
Мы используем cookies
Соглашаюсь